Time;durP1;ratioP1;P1;durP2;ratioP2;P2;SDS_P1;SDS_P2;PMS_P1;PMS_P2;Temp;Humidity;BMP_temperature;BMP_pressure;BME280_temperature;BME280_humidity;BME280_pressure;Samples;Min_cycle;Max_cycle;Signal;HPM_P1;HPM_P2
2022/04/23 00:00:23;;;;;;;0.30;0.20;;;7.40;99.90;;;;;;5117209;27;20473;-92
2022/04/23 00:02:50;;;;;;;1.93;1.83;;;7.40;99.90;;;;;;5111884;27;20875;-92
2022/04/23 00:05:17;;;;;;;0.30;0.10;;;7.40;99.90;;;;;;5109739;27;20467;-92
2022/04/23 00:07:43;;;;;;;0.40;0.30;;;7.40;99.90;;;;;;5124102;27;20461;-91
2022/04/23 00:10:11;;;;;;;0.87;0.87;;;7.40;99.90;;;;;;5123280;27;20453;-91
2022/04/23 00:12:39;;;;;;;0.33;0.27;;;7.40;99.90;;;;;;5117837;27;20529;-91
2022/04/23 00:15:07;;;;;;;0.30;0.10;;;7.40;99.90;;;;;;5124451;27;20502;-91
2022/04/23 00:17:36;;;;;;;0.40;0.30;;;7.40;99.90;;;;;;5125076;27;20484;-92
2022/04/23 00:20:04;;;;;;;0.30;0.20;;;7.40;99.90;;;;;;5113619;27;20542;-92
2022/04/23 00:22:31;;;;;;;0.30;0.20;;;7.40;99.90;;;;;;5114122;28;20783;-91
2022/04/23 00:24:58;;;;;;;1.40;1.30;;;7.40;99.90;;;;;;5113224;28;20782;-93
2022/04/23 00:27:25;;;;;;;0.30;0.20;;;7.40;99.90;;;;;;5123052;28;20462;-92
2022/04/23 00:29:52;;;;;;;0.30;0.20;;;7.40;99.90;;;;;;5109652;27;20840;-92
2022/04/23 00:32:19;;;;;;;0.30;0.20;;;7.40;99.90;;;;;;5118956;28;20539;-92
2022/04/23 00:34:49;;;;;;;0.30;0.20;;;7.50;99.90;;;;;;5122999;28;20473;-92
2022/04/23 00:37:16;;;;;;;0.30;0.20;;;7.40;99.90;;;;;;5120842;28;20460;-91
2022/04/23 00:39:43;;;;;;;0.30;0.10;;;7.40;99.90;;;;;;5107118;28;20521;-91
2022/04/23 00:42:11;;;;;;;0.40;0.30;;;7.40;99.90;;;;;;5108026;28;20463;-91
2022/04/23 00:44:38;;;;;;;5.67;1.73;;;7.40;99.90;;;;;;5126779;28;20517;-91
2022/04/23 00:47:05;;;;;;;0.97;0.70;;;7.50;99.90;;;;;;5120559;27;20520;-91
2022/04/23 00:49:33;;;;;;;0.30;0.20;;;7.40;99.90;;;;;;5125161;28;20468;-92
2022/04/23 00:52:02;;;;;;;0.40;0.20;;;7.40;99.90;;;;;;5111312;28;20747;-92
2022/04/23 00:54:30;;;;;;;1.20;0.30;;;7.40;99.90;;;;;;5107517;28;20530;-92
2022/04/23 00:56:58;;;;;;;0.30;0.10;;;7.40;99.90;;;;;;5121687;28;20552;-92
2022/04/23 00:59:26;;;;;;;0.30;0.13;;;7.40;99.90;;;;;;5114276;28;20560;-91
2022/04/23 01:01:53;;;;;;;1.07;1.07;;;7.40;99.90;;;;;;5122768;27;20960;-91
2022/04/23 01:04:20;;;;;;;0.77;0.77;;;7.30;99.90;;;;;;5112698;28;20491;-91
2022/04/23 01:06:47;;;;;;;0.40;0.30;;;7.40;99.90;;;;;;5115435;28;20468;-92
2022/04/23 01:09:16;;;;;;;0.30;0.20;;;7.40;99.90;;;;;;5123256;27;20540;-91
2022/04/23 01:11:43;;;;;;;0.37;0.27;;;7.40;99.90;;;;;;5113636;28;20915;-91
2022/04/23 01:14:10;;;;;;;1.53;0.70;;;7.50;99.90;;;;;;5114387;28;20509;-91
2022/04/23 01:16:37;;;;;;;1.03;1.03;;;7.50;99.90;;;;;;5122614;27;20571;-91
2022/04/23 01:19:04;;;;;;;0.70;0.63;;;7.50;99.90;;;;;;5105464;28;20553;-92
2022/04/23 01:21:33;;;;;;;0.30;0.10;;;7.40;99.90;;;;;;5116854;28;21035;-91
2022/04/23 01:24:01;;;;;;;0.50;0.43;;;7.50;99.90;;;;;;5114470;28;20485;-92
2022/04/23 01:26:29;;;;;;;2.63;1.90;;;7.50;99.90;;;;;;5109792;28;20608;-91
2022/04/23 01:28:57;;;;;;;2.10;0.47;;;7.40;99.90;;;;;;5116066;27;20465;-92
2022/04/23 01:31:25;;;;;;;0.37;0.30;;;7.40;99.90;;;;;;5115733;27;20458;-91
2022/04/23 01:33:52;;;;;;;0.60;0.60;;;7.50;99.90;;;;;;5120495;27;20462;-91
2022/04/23 01:36:19;;;;;;;0.60;0.60;;;7.40;99.90;;;;;;5108781;27;20449;-91
2022/04/23 01:38:48;;;;;;;0.30;0.20;;;7.40;99.90;;;;;;5124209;27;20488;-91
2022/04/23 01:41:15;;;;;;;0.60;0.60;;;7.40;99.90;;;;;;5112891;27;20494;-92
2022/04/23 01:43:43;;;;;;;2.73;0.40;;;7.40;99.90;;;;;;5129306;27;20493;-91
2022/04/23 01:46:09;;;;;;;0.30;0.10;;;7.40;99.90;;;;;;5126333;27;20533;-91
2022/04/23 01:48:36;;;;;;;0.30;0.20;;;7.40;99.90;;;;;;5129378;27;20547;-91
2022/04/23 01:51:03;;;;;;;1.90;1.80;;;7.40;99.90;;;;;;5127686;27;20965;-91
2022/04/23 01:53:30;;;;;;;0.30;0.10;;;7.30;99.90;;;;;;5122457;27;20909;-91
2022/04/23 01:55:59;;;;;;;0.30;0.30;;;7.30;99.90;;;;;;5116467;27;20902;-91
2022/04/23 01:58:26;;;;;;;0.40;0.20;;;7.30;99.90;;;;;;5108341;27;20465;-91
2022/04/23 02:00:54;;;;;;;0.30;0.20;;;7.40;99.90;;;;;;5109247;28;20467;-90
2022/04/23 02:03:21;;;;;;;0.30;0.13;;;7.30;99.90;;;;;;5113576;27;20961;-91
2022/04/23 02:05:48;;;;;;;1.17;1.17;;;7.30;99.90;;;;;;5118959;27;20675;-91
2022/04/23 02:08:16;;;;;;;0.87;0.53;;;7.30;99.90;;;;;;5121955;27;20472;-90
2022/04/23 02:10:43;;;;;;;0.30;0.10;;;7.30;99.90;;;;;;5123755;27;21004;-91
2022/04/23 02:13:12;;;;;;;0.60;0.60;;;7.30;99.90;;;;;;5108912;27;20476;-90
2022/04/23 02:15:40;;;;;;;2.20;0.97;;;7.30;99.90;;;;;;5129571;27;20449;-91
2022/04/23 02:18:08;;;;;;;0.60;0.57;;;7.30;99.90;;;;;;5121300;27;20467;-90
2022/04/23 02:20:35;;;;;;;1.00;0.93;;;7.30;99.90;;;;;;5126766;27;20519;-90
2022/04/23 02:23:02;;;;;;;2.07;1.90;;;7.30;99.90;;;;;;5126490;27;20479;-91
2022/04/23 02:25:29;;;;;;;1.70;1.70;;;7.30;99.90;;;;;;5121123;27;20464;-91
2022/04/23 02:27:56;;;;;;;2.20;0.93;;;7.30;99.90;;;;;;5111298;27;20557;-91
2022/04/23 02:30:25;;;;;;;0.40;0.40;;;7.30;99.90;;;;;;5125037;27;21035;-91
2022/04/23 02:32:52;;;;;;;1.20;1.20;;;7.30;99.90;;;;;;5122424;27;20472;-89
2022/04/23 02:35:20;;;;;;;0.77;0.77;;;7.30;99.90;;;;;;5122794;27;20548;-91
2022/04/23 02:37:48;;;;;;;0.80;0.80;;;7.30;99.90;;;;;;5113637;27;20474;-91
2022/04/23 02:40:17;;;;;;;0.93;0.90;;;7.40;99.90;;;;;;5121927;27;20475;-91
2022/04/23 02:42:44;;;;;;;0.53;0.53;;;7.40;99.90;;;;;;5130016;27;20516;-90
2022/04/23 02:45:15;;;;;;;0.30;0.20;;;7.40;99.90;;;;;;5120513;27;20735;-90
2022/04/23 02:47:47;;;;;;;2.13;2.03;;;7.40;99.90;;;;;;5129669;27;20441;-90
2022/04/23 02:50:16;;;;;;;1.77;1.77;;;7.30;99.90;;;;;;5115899;27;20483;-90
2022/04/23 02:52:44;;;;;;;0.30;0.20;;;7.40;99.90;;;;;;5119853;27;20485;-91
2022/04/23 02:55:12;;;;;;;0.77;0.77;;;7.40;99.90;;;;;;5118040;27;20468;-91
2022/04/23 02:57:40;;;;;;;0.57;0.47;;;7.40;99.90;;;;;;5128508;27;20475;-91
2022/04/23 03:00:11;;;;;;;1.23;1.23;;;7.40;99.90;;;;;;5132119;28;20450;-91
2022/04/23 03:02:38;;;;;;;0.30;0.20;;;7.40;99.90;;;;;;5133511;27;20494;-91
2022/04/23 03:05:09;;;;;;;5.53;1.20;;;7.40;99.90;;;;;;5139056;27;20529;-91
2022/04/23 03:07:36;;;;;;;0.30;0.20;;;7.40;99.90;;;;;;5125188;27;20516;-91
2022/04/23 03:10:04;;;;;;;2.17;1.33;;;7.40;99.90;;;;;;5107833;27;20930;-91
2022/04/23 03:12:31;;;;;;;2.10;2.00;;;7.40;99.90;;;;;;5108660;27;20834;-91
2022/04/23 03:14:58;;;;;;;3.10;0.60;;;7.40;99.90;;;;;;5116196;27;21055;-91
2022/04/23 03:17:26;;;;;;;0.30;0.30;;;7.40;99.90;;;;;;5117176;27;21029;-91
2022/04/23 03:19:53;;;;;;;0.40;0.40;;;7.40;99.90;;;;;;5127987;27;20483;-91
2022/04/23 03:22:22;;;;;;;1.27;0.73;;;7.40;99.90;;;;;;5126867;27;20549;-91
2022/04/23 03:24:49;;;;;;;1.73;1.63;;;7.40;99.90;;;;;;5122878;27;20487;-91
2022/04/23 03:27:16;;;;;;;1.60;1.23;;;7.40;99.90;;;;;;5147928;27;20501;-91
2022/04/23 03:29:44;;;;;;;0.93;0.93;;;7.50;99.90;;;;;;5146836;27;20518;-91
2022/04/23 03:32:11;;;;;;;0.80;0.30;;;7.50;99.90;;;;;;5109762;27;20477;-91
2022/04/23 03:34:38;;;;;;;0.83;0.67;;;7.40;99.90;;;;;;5117327;27;20859;-92
2022/04/23 03:37:06;;;;;;;0.40;0.40;;;7.40;99.90;;;;;;5107391;27;20964;-91
2022/04/23 03:39:35;;;;;;;0.40;0.20;;;7.50;99.90;;;;;;5123076;27;20919;-91
2022/04/23 03:42:02;;;;;;;1.47;1.37;;;7.50;99.90;;;;;;5116781;27;20521;-91
2022/04/23 03:44:29;;;;;;;1.13;1.03;;;7.50;99.90;;;;;;5104250;27;20583;-91
2022/04/23 03:46:57;;;;;;;2.00;2.00;;;7.40;99.90;;;;;;5113212;27;20451;-91
2022/04/23 03:49:25;;;;;;;0.63;0.63;;;7.40;99.90;;;;;;5121846;27;20547;-91
2022/04/23 03:51:52;;;;;;;0.50;0.50;;;7.40;99.90;;;;;;5127681;27;20449;-91
2022/04/23 03:54:19;;;;;;;0.30;0.20;;;7.50;99.90;;;;;;5116248;27;20901;-91
2022/04/23 03:56:48;;;;;;;0.77;0.77;;;7.50;99.90;;;;;;5106873;27;20568;-91
2022/04/23 03:59:20;;;;;;;0.87;0.80;;;7.50;99.90;;;;;;5115128;27;20465;-91
2022/04/23 04:01:47;;;;;;;0.83;0.83;;;7.50;99.90;;;;;;5105806;27;20477;-91
2022/04/23 04:04:15;;;;;;;0.30;0.20;;;7.50;99.90;;;;;;5124077;27;20499;-91
2022/04/23 04:06:42;;;;;;;0.77;0.77;;;7.50;99.90;;;;;;5125577;27;20925;-91
2022/04/23 04:09:09;;;;;;;0.30;0.20;;;7.50;99.90;;;;;;5119479;27;20534;-91
2022/04/23 04:14:18;;;;;;;2.30;2.27;;;7.50;99.90;;;;;;5103948;28;20457;-91
2022/04/23 04:16:46;;;;;;;2.30;0.97;;;7.50;99.90;;;;;;5113126;27;20454;-91
2022/04/23 04:19:14;;;;;;;0.87;0.73;;;7.60;99.90;;;;;;5109179;27;20496;-91
2022/04/23 04:21:43;;;;;;;1.03;1.03;;;7.60;99.90;;;;;;5104902;28;20434;-91
2022/04/23 04:24:12;;;;;;;1.17;0.87;;;7.60;99.90;;;;;;5118577;28;20805;-90
2022/04/23 04:26:40;;;;;;;2.30;1.33;;;7.60;99.90;;;;;;5114575;28;20586;-91
2022/04/23 04:29:08;;;;;;;1.30;1.20;;;7.60;99.90;;;;;;5120800;28;20550;-90
2022/04/23 04:31:50;;;;;;;0.40;0.40;;;7.60;99.90;;;;;;5116157;27;20525;-90
2022/04/23 04:34:18;;;;;;;0.63;0.63;;;7.60;99.90;;;;;;5109917;28;20460;-91
2022/04/23 04:36:46;;;;;;;2.60;2.37;;;7.60;99.90;;;;;;5120839;28;20938;-90
2022/04/23 04:39:14;;;;;;;0.40;0.40;;;7.50;99.90;;;;;;5118288;28;20472;-91
2022/04/23 04:41:41;;;;;;;0.87;0.87;;;7.50;99.90;;;;;;5117333;28;20465;-90
2022/04/23 04:44:09;;;;;;;4.00;0.80;;;7.50;99.90;;;;;;5116624;28;20491;-90
2022/04/23 04:46:39;;;;;;;0.30;0.23;;;7.50;99.90;;;;;;5126986;28;20545;-90
2022/04/23 04:49:06;;;;;;;1.33;1.23;;;7.50;99.90;;;;;;5111659;28;20465;-90
2022/04/23 04:51:35;;;;;;;0.43;0.43;;;7.50;99.90;;;;;;5104780;28;20534;-90
2022/04/23 04:54:02;;;;;;;2.70;2.13;;;7.60;99.90;;;;;;5115883;28;20504;-90
2022/04/23 04:56:29;;;;;;;2.10;0.50;;;7.60;99.90;;;;;;5125289;28;20477;-90
2022/04/23 04:58:56;;;;;;;1.13;1.13;;;7.60;99.90;;;;;;5117569;27;20469;-91
2022/04/23 05:01:22;;;;;;;0.30;0.20;;;7.60;99.90;;;;;;5106046;27;20446;-90
2022/04/23 05:03:51;;;;;;;4.00;1.53;;;7.50;99.90;;;;;;5124687;27;20472;-91
2022/04/23 05:06:19;;;;;;;2.53;1.30;;;7.50;99.90;;;;;;5126929;27;20541;-90
2022/04/23 05:08:46;;;;;;;0.57;0.57;;;7.50;99.90;;;;;;5128598;27;20495;-90
2022/04/23 05:11:13;;;;;;;1.27;0.30;;;7.50;99.90;;;;;;5123288;27;20801;-90
2022/04/23 05:13:40;;;;;;;2.10;2.00;;;7.50;99.90;;;;;;5127478;27;20468;-90
2022/04/23 05:16:07;;;;;;;0.50;0.50;;;7.50;99.90;;;;;;5127060;27;20934;-90
2022/04/23 05:18:34;;;;;;;0.30;0.20;;;7.60;99.90;;;;;;5123358;27;20529;-90
2022/04/23 05:21:03;;;;;;;3.80;2.40;;;7.60;99.90;;;;;;5123373;27;20491;-90
2022/04/23 05:23:31;;;;;;;2.30;2.20;;;7.60;99.90;;;;;;5108432;27;20486;-90
2022/04/23 05:25:58;;;;;;;0.50;0.50;;;7.50;99.90;;;;;;5116727;27;20552;-90
2022/04/23 05:28:25;;;;;;;0.87;0.37;;;7.50;99.90;;;;;;5117041;27;20612;-90
2022/04/23 05:30:52;;;;;;;0.60;0.60;;;7.50;99.90;;;;;;5109380;27;20475;-90
2022/04/23 05:33:19;;;;;;;0.63;0.63;;;7.50;99.90;;;;;;5125530;27;21028;-90
2022/04/23 05:35:46;;;;;;;0.57;0.57;;;7.50;99.90;;;;;;5115182;27;20457;-90
2022/04/23 05:38:15;;;;;;;0.50;0.50;;;7.60;99.90;;;;;;5107744;27;20770;-90
2022/04/23 05:40:42;;;;;;;5.80;3.10;;;7.60;99.90;;;;;;5109109;28;20461;-90
2022/04/23 05:43:09;;;;;;;0.50;0.40;;;7.60;99.90;;;;;;5108912;28;20445;-89
2022/04/23 05:45:36;;;;;;;5.33;1.50;;;7.50;99.90;;;;;;5119656;27;20534;-90
2022/04/23 05:48:02;;;;;;;0.83;0.83;;;7.50;99.90;;;;;;5121838;27;20844;-90
2022/04/23 05:50:30;;;;;;;0.50;0.40;;;7.60;99.90;;;;;;5110950;27;20514;-90
2022/04/23 05:52:57;;;;;;;1.60;1.50;;;7.60;99.90;;;;;;5119563;27;20462;-91
2022/04/23 05:55:25;;;;;;;0.60;0.50;;;7.60;99.90;;;;;;5117202;27;20474;-90
2022/04/23 05:57:52;;;;;;;0.40;0.40;;;7.60;99.90;;;;;;5130036;27;20482;-90
2022/04/23 06:00:20;;;;;;;3.50;1.07;;;7.70;99.90;;;;;;5121929;27;21177;-90
2022/04/23 06:02:47;;;;;;;1.43;1.20;;;7.60;99.90;;;;;;5122524;27;20464;-90
2022/04/23 06:05:14;;;;;;;2.40;1.20;;;7.70;99.90;;;;;;5126770;27;20485;-90
2022/04/23 06:07:41;;;;;;;0.40;0.30;;;7.70;99.90;;;;;;5119782;27;20549;-90
2022/04/23 06:10:09;;;;;;;0.60;0.60;;;7.70;99.90;;;;;;5119347;27;20476;-90
2022/04/23 06:12:38;;;;;;;1.03;0.77;;;7.70;99.90;;;;;;5106805;28;20441;-90
2022/04/23 06:15:06;;;;;;;2.70;2.07;;;7.70;99.90;;;;;;5109714;28;20831;-90
2022/04/23 06:17:33;;;;;;;6.60;1.13;;;7.70;99.90;;;;;;5110325;27;20528;-90
2022/04/23 06:20:01;;;;;;;0.80;0.63;;;7.70;99.90;;;;;;5112174;27;20488;-90
2022/04/23 06:22:28;;;;;;;1.67;0.40;;;7.80;99.90;;;;;;5116929;27;20488;-90
2022/04/23 06:24:55;;;;;;;2.17;2.00;;;7.80;99.90;;;;;;5116123;27;20485;-89
2022/04/23 06:27:22;;;;;;;0.40;0.27;;;7.80;99.90;;;;;;5117086;27;20493;-90
2022/04/23 06:29:51;;;;;;;0.90;0.90;;;7.90;99.90;;;;;;5110942;27;21055;-90
2022/04/23 06:32:18;;;;;;;5.10;4.83;;;8.00;99.90;;;;;;5116372;27;20458;-91
2022/04/23 06:34:45;;;;;;;0.37;0.30;;;7.90;99.90;;;;;;5110711;27;20466;-90
2022/04/23 06:37:12;;;;;;;0.33;0.23;;;8.00;99.90;;;;;;5112532;27;20469;-90
2022/04/23 06:39:39;;;;;;;1.50;1.03;;;8.10;99.90;;;;;;5111101;27;20461;-91
2022/04/23 06:42:06;;;;;;;0.30;0.10;;;8.10;99.90;;;;;;5113998;27;20538;-90
2022/04/23 06:44:33;;;;;;;1.97;1.80;;;8.20;99.90;;;;;;5119063;27;21100;-91
2022/04/23 06:47:02;;;;;;;0.93;0.93;;;8.30;99.90;;;;;;5151685;27;20441;-90
2022/04/23 06:49:29;;;;;;;0.83;0.83;;;8.40;99.90;;;;;;5136280;27;20499;-91
2022/04/23 06:51:56;;;;;;;0.47;0.47;;;8.20;99.90;;;;;;5136875;27;20513;-91
2022/04/23 06:54:23;;;;;;;1.50;1.40;;;8.20;99.90;;;;;;5117005;27;20458;-90
2022/04/23 06:56:50;;;;;;;0.40;0.40;;;8.20;99.90;;;;;;5122465;27;20647;-90
2022/04/23 06:59:17;;;;;;;1.63;0.93;;;8.10;99.90;;;;;;5122065;27;20468;-91
2022/04/23 07:01:44;;;;;;;1.73;1.63;;;8.10;99.90;;;;;;5115260;27;20563;-89
2022/04/23 07:04:13;;;;;;;1.03;1.03;;;8.10;99.90;;;;;;5114922;27;20460;-90
2022/04/23 07:06:40;;;;;;;1.73;1.60;;;8.10;99.90;;;;;;5118526;27;20487;-90
2022/04/23 07:09:07;;;;;;;0.37;0.37;;;8.10;99.90;;;;;;5123461;27;21041;-91
2022/04/23 07:11:34;;;;;;;0.33;0.23;;;8.20;99.90;;;;;;5114298;27;21005;-90
2022/04/23 07:14:01;;;;;;;0.40;0.30;;;8.20;99.90;;;;;;5114664;27;20536;-90
2022/04/23 07:16:28;;;;;;;0.50;0.40;;;8.10;99.90;;;;;;5125533;27;20517;-90
2022/04/23 07:18:55;;;;;;;2.10;1.80;;;8.20;99.90;;;;;;5124303;27;20464;-90
2022/04/23 07:21:24;;;;;;;4.30;1.70;;;8.20;99.90;;;;;;5118255;27;20997;-90
2022/04/23 07:26:39;;;;;;;0.50;0.50;;;8.20;99.90;;;;;;5104231;27;21056;-91
2022/04/23 07:29:07;;;;;;;1.33;0.67;;;8.30;99.90;;;;;;5117787;27;20472;-90
2022/04/23 07:31:36;;;;;;;0.47;0.47;;;8.50;99.90;;;;;;5122330;27;20525;-90
2022/04/23 07:39:33;;;;;;;6.03;3.03;;;8.70;99.90;;;;;;5121101;27;20597;-90
2022/04/23 07:42:00;;;;;;;0.43;0.40;;;8.70;99.90;;;;;;5125973;27;20460;-91
2022/04/23 07:44:27;;;;;;;0.60;0.60;;;8.90;99.90;;;;;;5116646;27;20547;-90
2022/04/23 07:46:55;;;;;;;2.33;2.23;;;8.80;99.90;;;;;;5117483;27;20485;-90
2022/04/23 07:49:22;;;;;;;0.40;0.30;;;8.70;99.90;;;;;;5113859;27;20464;-91
2022/04/23 07:51:50;;;;;;;2.10;1.90;;;8.80;99.90;;;;;;5122322;27;20517;-91
2022/04/23 07:54:17;;;;;;;0.50;0.50;;;8.90;99.90;;;;;;5122805;27;20798;-90
2022/04/23 07:56:45;;;;;;;0.50;0.50;;;9.00;99.90;;;;;;5113833;27;22324;-90
2022/04/23 07:59:12;;;;;;;0.53;0.53;;;9.00;99.90;;;;;;5109968;27;20924;-91
2022/04/23 08:01:39;;;;;;;4.27;2.20;;;9.10;99.90;;;;;;5114106;27;21139;-91
2022/04/23 08:04:07;;;;;;;0.70;0.40;;;9.30;99.90;;;;;;5116959;27;20473;-90
2022/04/23 08:06:35;;;;;;;0.30;0.20;;;9.70;99.90;;;;;;5113198;27;20579;-91
2022/04/23 08:09:04;;;;;;;1.37;1.27;;;9.90;99.90;;;;;;5117848;27;20471;-91
2022/04/23 08:11:31;;;;;;;3.43;1.17;;;9.60;99.90;;;;;;5114069;27;20470;-91
2022/04/23 08:13:58;;;;;;;0.40;0.40;;;9.50;99.90;;;;;;5116816;27;20468;-91
2022/04/23 08:16:27;;;;;;;2.07;1.87;;;9.70;99.90;;;;;;5112287;27;20788;-91
2022/04/23 08:18:55;;;;;;;1.87;1.77;;;9.70;99.90;;;;;;5123365;27;20942;-91
2022/04/23 08:21:23;;;;;;;2.10;2.00;;;9.70;99.90;;;;;;5106592;28;20486;-91
2022/04/23 08:23:50;;;;;;;1.20;1.17;;;9.80;99.90;;;;;;5112031;28;20475;-91
2022/04/23 08:26:19;;;;;;;1.53;1.43;;;9.70;99.90;;;;;;5109836;27;20492;-90
2022/04/23 08:31:30;;;;;;;1.43;1.03;;;9.60;99.90;;;;;;5117900;28;20456;-90
2022/04/23 08:34:00;;;;;;;1.90;1.80;;;9.80;99.90;;;;;;5113684;27;20975;-91
2022/04/23 08:36:29;;;;;;;0.57;0.57;;;9.70;99.90;;;;;;5126953;27;20541;-90
2022/04/23 08:38:57;;;;;;;0.40;0.30;;;9.50;99.90;;;;;;5108754;27;20936;-90
2022/04/23 08:41:29;;;;;;;1.93;1.47;;;9.50;99.90;;;;;;5108065;27;20810;-90
2022/04/23 08:44:05;;;;;;;0.77;0.77;;;9.50;99.90;;;;;;5114587;27;20522;-91
2022/04/23 08:46:34;;;;;;;0.40;0.33;;;9.40;99.90;;;;;;5115354;27;20545;-91
2022/04/23 08:49:15;;;;;;;0.30;0.20;;;9.30;99.90;;;;;;5110702;27;20466;-90
2022/04/23 08:51:51;;;;;;;0.67;0.53;;;9.20;99.90;;;;;;5109411;27;20931;-91
2022/04/23 08:54:20;;;;;;;3.60;2.67;;;9.10;99.90;;;;;;5111807;27;20522;-91
2022/04/23 08:56:48;;;;;;;0.40;0.37;;;9.00;99.90;;;;;;5112023;27;20585;-91
2022/04/23 08:59:17;;;;;;;2.00;1.90;;;9.10;99.90;;;;;;5116810;27;20465;-92
2022/04/23 09:01:45;;;;;;;0.40;0.37;;;9.10;99.90;;;;;;5116210;27;20518;-89
2022/04/23 09:04:13;;;;;;;1.83;1.83;;;9.00;99.90;;;;;;5119024;27;20903;-91
2022/04/23 09:06:42;;;;;;;1.20;1.20;;;9.10;99.90;;;;;;5108275;27;20800;-92
2022/04/23 09:09:13;;;;;;;0.53;0.53;;;8.90;99.90;;;;;;5113645;27;20831;-91
2022/04/23 09:11:41;;;;;;;1.07;0.97;;;8.90;99.90;;;;;;5110897;27;20879;-92
2022/04/23 09:14:21;;;;;;;2.23;2.03;;;8.90;99.90;;;;;;5109419;27;20457;-92
2022/04/23 09:25:10;;;;;;;0.53;0.53;;;8.90;99.90;;;;;;5120674;27;20451;-91
2022/04/23 09:27:38;;;;;;;0.30;0.10;;;8.90;99.90;;;;;;5132250;27;20553;-90
2022/04/23 09:30:08;;;;;;;0.40;0.30;;;8.90;99.90;;;;;;5120130;27;20469;-90
2022/04/23 09:32:36;;;;;;;0.90;0.90;;;8.80;99.90;;;;;;5119094;27;20548;-90
2022/04/23 09:35:11;;;;;;;1.60;1.50;;;8.90;99.90;;;;;;5114934;27;20513;-90
2022/04/23 09:40:26;;;;;;;0.30;0.20;;;8.90;99.90;;;;;;5117852;27;20452;-90
2022/04/23 09:43:04;;;;;;;7.20;1.07;;;9.10;99.90;;;;;;5116872;27;20473;-91
2022/04/23 09:45:34;;;;;;;0.80;0.73;;;9.40;99.90;;;;;;5117450;27;20851;-91
2022/04/23 09:48:18;;;;;;;1.50;1.40;;;9.60;99.90;;;;;;5127351;27;20488;-90
2022/04/23 09:50:46;;;;;;;0.40;0.30;;;9.90;99.90;;;;;;5113209;27;20473;-90
2022/04/23 09:53:15;;;;;;;0.50;0.50;;;10.00;99.90;;;;;;5108672;28;20822;-90
2022/04/23 09:55:42;;;;;;;0.30;0.20;;;10.30;99.90;;;;;;5110499;27;20474;-90
2022/04/23 09:58:11;;;;;;;0.50;0.40;;;10.60;99.90;;;;;;5135648;27;20465;-90
2022/04/23 10:00:40;;;;;;;0.43;0.33;;;10.50;99.90;;;;;;5124563;27;20709;-90
2022/04/23 10:03:08;;;;;;;1.00;0.90;;;10.30;99.90;;;;;;5122380;27;21056;-90
2022/04/23 10:05:39;;;;;;;1.27;1.03;;;10.40;99.90;;;;;;5116681;27;20597;-90
2022/04/23 10:08:12;;;;;;;4.27;3.43;;;10.30;99.90;;;;;;5126787;27;20449;-90
2022/04/23 10:10:44;;;;;;;0.80;0.80;;;10.40;99.90;;;;;;5121064;27;20994;-90
2022/04/23 10:13:12;;;;;;;1.80;1.27;;;10.50;99.90;;;;;;5119231;27;20558;-91
2022/04/23 10:15:45;;;;;;;0.40;0.40;;;10.80;99.90;;;;;;5127745;27;20459;-91
2022/04/23 10:18:12;;;;;;;0.47;0.47;;;10.90;99.90;;;;;;5119647;27;20974;-91
2022/04/23 10:20:40;;;;;;;0.70;0.70;;;10.70;99.90;;;;;;5107949;27;20489;-91
2022/04/23 10:23:17;;;;;;;0.37;0.33;;;10.80;99.90;;;;;;5126866;27;20464;-91
2022/04/23 10:25:50;;;;;;;0.50;0.50;;;10.80;99.90;;;;;;5120112;27;20480;-91
2022/04/23 10:28:18;;;;;;;0.77;0.77;;;11.00;99.90;;;;;;5150164;27;20513;-90
2022/04/23 10:30:47;;;;;;;0.40;0.40;;;11.00;99.90;;;;;;5137225;27;20484;-91
2022/04/23 10:33:26;;;;;;;0.30;0.20;;;10.80;99.90;;;;;;5131395;27;20482;-91
2022/04/23 10:36:08;;;;;;;0.80;0.80;;;11.00;99.90;;;;;;5116298;27;20552;-91
2022/04/23 10:38:38;;;;;;;0.97;0.80;;;10.90;99.90;;;;;;5120525;27;21017;-91
2022/04/23 10:41:06;;;;;;;2.93;2.00;;;10.90;99.90;;;;;;5121539;27;20465;-90
2022/04/23 10:43:33;;;;;;;0.87;0.73;;;11.10;99.90;;;;;;5125184;27;20548;-91
2022/04/23 10:46:04;;;;;;;1.70;0.70;;;11.10;99.90;;;;;;5123103;27;20485;-91
2022/04/23 10:48:32;;;;;;;1.07;1.07;;;11.10;99.90;;;;;;5122409;27;20540;-91
2022/04/23 10:51:21;;;;;;;0.53;0.50;;;11.30;99.90;;;;;;5125284;27;20493;-90
2022/04/23 10:53:56;;;;;;;1.00;0.67;;;11.80;99.90;;;;;;5121640;27;20453;-91
2022/04/23 10:56:26;;;;;;;0.40;0.40;;;12.00;99.90;;;;;;5124618;27;20518;-91
2022/04/23 10:58:53;;;;;;;1.03;0.80;;;12.60;99.90;;;;;;5118744;27;20520;-91
2022/04/23 11:01:31;;;;;;;0.87;0.87;;;12.90;99.90;;;;;;5111597;27;20470;-91
2022/04/23 11:04:20;;;;;;;2.23;2.13;;;12.70;99.90;;;;;;5127100;27;20481;-91
2022/04/23 11:12:37;;;;;;;0.60;0.60;;;12.40;99.90;;;;;;5087673;27;20553;-90
2022/04/23 11:15:15;;;;;;;1.47;1.20;;;12.30;99.90;;;;;;5107480;28;20442;-91
2022/04/23 11:17:55;;;;;;;1.50;1.50;;;12.20;99.90;;;;;;5118556;27;20552;-91
2022/04/23 11:20:33;;;;;;;0.73;0.37;;;12.10;99.90;;;;;;5121504;27;20492;-91
2022/04/23 11:23:01;;;;;;;1.23;0.70;;;12.00;99.90;;;;;;5110981;27;20526;-91
2022/04/23 11:25:30;;;;;;;1.47;1.37;;;11.90;99.90;;;;;;5114375;27;20501;-91
2022/04/23 11:28:01;;;;;;;2.90;0.53;;;12.00;99.90;;;;;;5125012;27;20861;-91
2022/04/23 11:30:32;;;;;;;1.13;0.80;;;12.30;99.90;;;;;;5124291;27;20474;-89
2022/04/23 11:33:14;;;;;;;0.63;0.63;;;12.40;99.90;;;;;;5124393;27;20922;-89
2022/04/23 11:35:42;;;;;;;1.00;0.70;;;12.30;99.90;;;;;;5112279;27;20539;-90
2022/04/23 11:38:19;;;;;;;0.40;0.40;;;12.00;99.90;;;;;;5110891;27;20937;-89
2022/04/23 11:40:46;;;;;;;3.33;0.67;;;12.10;99.90;;;;;;5117320;27;20462;-90
2022/04/23 11:43:32;;;;;;;0.57;0.57;;;12.00;99.90;;;;;;5110548;27;20461;-88
2022/04/23 11:46:03;;;;;;;1.53;0.53;;;11.90;99.90;;;;;;5117113;27;20511;-92
2022/04/23 11:48:46;;;;;;;0.67;0.67;;;12.10;99.90;;;;;;5116454;27;20462;-91
2022/04/23 11:51:13;;;;;;;0.60;0.60;;;12.20;99.90;;;;;;5113867;27;20525;-90
2022/04/23 11:53:48;;;;;;;0.30;0.20;;;12.10;99.90;;;;;;5111479;27;20460;-90
2022/04/23 11:56:24;;;;;;;1.73;0.90;;;12.40;99.90;;;;;;5111900;27;20540;-89
2022/04/23 11:58:53;;;;;;;2.43;0.80;;;12.20;99.90;;;;;;5109780;27;20855;-90
2022/04/23 12:01:23;;;;;;;0.50;0.50;;;12.40;99.90;;;;;;5112049;27;20526;-90
2022/04/23 12:03:52;;;;;;;0.77;0.77;;;12.30;99.90;;;;;;5109311;27;20559;-91
2022/04/23 12:06:19;;;;;;;0.63;0.63;;;12.50;99.90;;;;;;5115633;27;20494;-90
2022/04/23 12:08:47;;;;;;;1.37;1.23;;;12.40;99.90;;;;;;5106394;27;21496;-90
2022/04/23 12:11:24;;;;;;;1.30;1.27;;;12.00;99.90;;;;;;5109189;27;20594;-90
2022/04/23 12:13:51;;;;;;;1.10;1.00;;;12.10;99.90;;;;;;5106225;27;20457;-90
2022/04/23 12:16:48;;;;;;;0.60;0.60;;;12.20;99.90;;;;;;5111367;27;20467;-90
2022/04/23 12:19:17;;;;;;;0.53;0.53;;;12.30;99.90;;;;;;5049592;28;20493;-90
2022/04/23 12:21:57;;;;;;;0.57;0.57;;;12.60;99.90;;;;;;5088642;27;20845;-91
2022/04/23 12:24:34;;;;;;;0.97;0.60;;;13.40;99.90;;;;;;5108398;27;20459;-89
2022/04/23 12:27:05;;;;;;;0.93;0.80;;;13.80;99.90;;;;;;5111093;28;20484;-90
2022/04/23 12:40:44;;;;;;;0.90;0.90;;;13.70;99.90;;;;;;5112470;28;20453;-91
2022/04/23 12:43:30;;;;;;;0.53;0.40;;;13.50;99.90;;;;;;5116907;27;20953;-91
2022/04/23 12:46:05;;;;;;;1.30;1.20;;;13.00;99.90;;;;;;5105964;27;20685;-91
2022/04/23 12:48:34;;;;;;;0.53;0.50;;;13.00;99.90;;;;;;5105578;28;20558;-91
2022/04/23 12:51:06;;;;;;;2.30;0.77;;;12.90;99.90;;;;;;5108616;28;20461;-91
2022/04/23 12:53:37;;;;;;;0.40;0.40;;;13.00;99.90;;;;;;5109782;28;20469;-90
2022/04/23 12:56:07;;;;;;;0.40;0.20;;;12.80;99.90;;;;;;5107770;27;20520;-90
2022/04/23 12:58:34;;;;;;;1.87;1.20;;;12.80;99.90;;;;;;5106843;27;20461;-91
2022/04/23 13:01:01;;;;;;;1.87;1.00;;;12.80;99.90;;;;;;5106627;27;20462;-91
2022/04/23 13:03:35;;;;;;;1.43;1.03;;;13.00;99.90;;;;;;5103516;27;20469;-91
2022/04/23 13:08:54;;;;;;;0.83;0.83;;;12.80;99.90;;;;;;5099454;28;20977;-92
2022/04/23 13:08:55;;;;;;;0.30;0.20;;;12.70;99.90;;;;;;5107419;27;20553;-89
2022/04/23 13:11:31;;;;;;;0.60;0.50;;;12.40;99.90;;;;;;5106053;28;20816;-91
2022/04/23 13:13:59;;;;;;;0.70;0.40;;;12.60;99.90;;;;;;5115230;28;20473;-91
2022/04/23 13:16:28;;;;;;;4.10;2.97;;;12.50;99.90;;;;;;5111696;28;20578;-90
2022/04/23 13:18:56;;;;;;;0.87;0.80;;;12.30;99.90;;;;;;5104566;28;20460;-90
2022/04/23 13:21:26;;;;;;;0.70;0.30;;;12.30;99.90;;;;;;5113303;28;20502;-90
2022/04/23 13:23:55;;;;;;;1.10;1.10;;;12.00;99.90;;;;;;5115191;27;21014;-90
2022/04/23 13:26:23;;;;;;;0.87;0.87;;;12.00;99.90;;;;;;5111571;27;20850;-90
2022/04/23 13:28:50;;;;;;;1.37;0.53;;;12.20;99.90;;;;;;5113189;27;21004;-90
2022/04/23 13:31:17;;;;;;;0.57;0.57;;;12.30;99.90;;;;;;5114703;27;20462;-90
2022/04/23 13:33:44;;;;;;;1.23;1.13;;;12.60;99.90;;;;;;5106219;27;20467;-90
2022/04/23 13:36:12;;;;;;;0.30;0.20;;;12.70;99.90;;;;;;5113734;27;20488;-90
2022/04/23 13:38:41;;;;;;;1.70;1.60;;;12.80;99.90;;;;;;5109050;27;20791;-90
2022/04/23 13:41:11;;;;;;;1.40;1.30;;;12.80;99.90;;;;;;5113168;27;20440;-90
2022/04/23 13:43:38;;;;;;;0.90;0.90;;;12.70;99.90;;;;;;5107788;28;20472;-90
2022/04/23 13:46:05;;;;;;;1.57;0.70;;;12.60;99.90;;;;;;5115493;27;20931;-90